createdAt,value
2022-10-10T00:01:20.113Z,100843.34
2022-10-10T00:03:47.972Z,100841.59
2022-10-10T00:06:15.936Z,100845.53
2022-10-10T00:08:44.245Z,100843.56
2022-10-10T00:11:13.302Z,100840.84
2022-10-10T00:13:41.090Z,100846.53
2022-10-10T00:16:09.365Z,100841.09
2022-10-10T00:18:38.055Z,100837.28
2022-10-10T00:21:06.528Z,100836.03
2022-10-10T00:23:33.950Z,100835.47
2022-10-10T00:26:05.571Z,100823.16
2022-10-10T00:28:38.525Z,100828.47
2022-10-10T00:31:08.817Z,100837.41
2022-10-10T00:33:37.286Z,100831.06
2022-10-10T00:36:05.639Z,100824.94
2022-10-10T00:38:33.396Z,100816.97
2022-10-10T00:41:00.929Z,100817.84
2022-10-10T00:43:29.085Z,100815.28
2022-10-10T00:45:56.774Z,100810.50
2022-10-10T00:48:40.289Z,100812.19
2022-10-10T00:51:17.070Z,100810.00
2022-10-10T00:53:53.238Z,100805.50
2022-10-10T00:56:25.146Z,100798.97
2022-10-10T00:58:54.771Z,100796.06
2022-10-10T01:01:22.588Z,100794.03
2022-10-10T01:03:49.948Z,100788.50
2022-10-10T01:06:17.414Z,100789.28
2022-10-10T01:08:45.137Z,100793.72
2022-10-10T01:11:34.390Z,100789.75
2022-10-10T01:14:11.315Z,100792.09
2022-10-10T01:16:50.544Z,100793.72
2022-10-10T01:19:24.208Z,100785.94
2022-10-10T01:22:08.617Z,100794.19
2022-10-10T01:24:56.656Z,100794.25
2022-10-10T01:27:41.979Z,100789.78
2022-10-10T01:30:11.633Z,100781.25
2022-10-10T01:32:56.078Z,100786.78
2022-10-10T01:35:41.927Z,100794.38
2022-10-10T01:38:17.629Z,100787.38
2022-10-10T01:40:53.992Z,100782.53
2022-10-10T01:43:21.353Z,100776.69
2022-10-10T01:45:51.296Z,100776.34
2022-10-10T01:48:27.450Z,100778.47
2022-10-10T01:51:07.127Z,100782.31
2022-10-10T01:53:52.971Z,100773.69
2022-10-10T01:56:44.811Z,100778.03
2022-10-10T01:59:49.960Z,100785.75
2022-10-10T02:02:41.857Z,100780.47
2022-10-10T02:05:15.981Z,100793.28
2022-10-10T02:07:52.357Z,100790.91
2022-10-10T02:10:24.251Z,100785.38
2022-10-10T02:12:52.148Z,100776.56
2022-10-10T02:15:22.331Z,100783.50
2022-10-10T02:17:50.862Z,100787.78
2022-10-10T02:20:21.212Z,100784.06
2022-10-10T02:22:50.477Z,100774.34
2022-10-10T02:25:22.630Z,100774.84
2022-10-10T02:27:58.358Z,100777.44
2022-10-10T02:30:26.120Z,100779.06
2022-10-10T02:33:01.222Z,100785.19
2022-10-10T02:35:29.560Z,100787.69
2022-10-10T02:37:58.902Z,100789.87
2022-10-10T02:40:29.137Z,100781.84
2022-10-10T02:42:57.922Z,100785.72
2022-10-10T02:45:25.843Z,100785.38
2022-10-10T02:47:53.536Z,100793.03
2022-10-10T02:50:22.303Z,100776.56
2022-10-10T02:52:49.801Z,100775.69
2022-10-10T02:55:17.494Z,100776.19
2022-10-10T02:57:45.117Z,100775.94
2022-10-10T03:00:13.099Z,100776.22
2022-10-10T03:02:40.451Z,100772.69
2022-10-10T03:05:08.596Z,100766.78
2022-10-10T03:07:36.165Z,100767.59
2022-10-10T03:10:06.169Z,100770.00
2022-10-10T03:12:34.908Z,100772.66
2022-10-10T03:15:02.593Z,100777.69
2022-10-10T03:17:30.080Z,100772.69
2022-10-10T03:19:57.703Z,100773.66
2022-10-10T03:22:25.091Z,100777.94
2022-10-10T03:24:52.437Z,100769.25
2022-10-10T03:27:20.069Z,100761.03
2022-10-10T03:29:47.424Z,100773.50
2022-10-10T03:32:14.753Z,100769.88
2022-10-10T03:34:42.363Z,100768.75
2022-10-10T03:37:09.793Z,100767.03
2022-10-10T03:39:37.565Z,100766.78
2022-10-10T03:42:05.250Z,100768.78
2022-10-10T03:44:32.770Z,100766.75
2022-10-10T03:47:00.150Z,100769.37
2022-10-10T03:49:27.816Z,100769.25
2022-10-10T03:51:55.218Z,100767.75
2022-10-10T03:54:22.620Z,100764.34
2022-10-10T03:56:50.240Z,100763.97
2022-10-10T03:59:17.612Z,100759.03
2022-10-10T04:01:45.014Z,100765.34
2022-10-10T04:04:12.714Z,100760.47
2022-10-10T04:06:40.181Z,100765.87
2022-10-10T04:09:07.629Z,100769.09
2022-10-10T04:11:37.021Z,100758.81
2022-10-10T04:14:04.414Z,100765.59
2022-10-10T04:16:31.753Z,100758.31
2022-10-10T04:18:59.378Z,100760.81
2022-10-10T04:21:26.777Z,100758.41
2022-10-10T04:23:54.128Z,100762.72
2022-10-10T04:26:21.760Z,100755.37
2022-10-10T04:28:49.239Z,100765.41
2022-10-10T04:31:16.640Z,100757.28
2022-10-10T04:33:44.379Z,100761.38
2022-10-10T04:36:11.839Z,100762.25
2022-10-10T04:38:39.175Z,100762.16
2022-10-10T04:41:07.094Z,100757.78
2022-10-10T04:43:34.519Z,100758.41
2022-10-10T04:46:02.063Z,100764.09
2022-10-10T04:48:29.736Z,100769.37
2022-10-10T04:50:58.458Z,100768.09
2022-10-10T04:53:26.947Z,100767.69
2022-10-10T04:55:54.583Z,100764.00
2022-10-10T04:58:21.950Z,100768.44
2022-10-10T05:00:53.357Z,100767.19
2022-10-10T05:03:22.195Z,100769.97
2022-10-10T05:05:50.119Z,100772.59
2022-10-10T05:08:18.323Z,100769.13
2022-10-10T05:10:46.925Z,100780.56
2022-10-10T05:13:15.580Z,100775.97
2022-10-10T05:15:43.333Z,100766.09
2022-10-10T05:18:11.225Z,100762.97
2022-10-10T05:20:38.620Z,100772.56
2022-10-10T05:23:06.069Z,100761.75
2022-10-10T05:25:33.715Z,100765.25
2022-10-10T05:28:01.083Z,100758.63
2022-10-10T05:30:28.422Z,100770.09
2022-10-10T05:32:56.272Z,100773.81
2022-10-10T05:35:23.675Z,100777.44
2022-10-10T05:37:51.034Z,100776.97
2022-10-10T05:40:18.679Z,100771.34
2022-10-10T05:42:47.105Z,100775.00
2022-10-10T05:45:14.485Z,100781.19
2022-10-10T05:47:42.154Z,100782.91
2022-10-10T05:50:22.904Z,100780.44
2022-10-10T05:52:51.083Z,100785.87
2022-10-10T05:55:18.615Z,100774.97
2022-10-10T05:57:46.384Z,100790.63
2022-10-10T06:00:14.079Z,100790.97
2022-10-10T06:02:41.802Z,100794.19
2022-10-10T06:05:09.434Z,100794.94
2022-10-10T06:08:02.530Z,100793.03
2022-10-10T06:10:24.655Z,100790.06
2022-10-10T06:12:52.321Z,100795.41
2022-10-10T06:15:19.799Z,100789.34
2022-10-10T06:17:47.478Z,100783.88
2022-10-10T06:20:14.858Z,100775.41
2022-10-10T06:22:42.202Z,100788.38
2022-10-10T06:25:29.000Z,100779.37
2022-10-10T06:27:57.270Z,100779.34
2022-10-10T06:30:25.054Z,100784.53
2022-10-10T06:32:56.480Z,100789.22
2022-10-10T06:35:24.850Z,100782.94
2022-10-10T06:37:52.220Z,100787.62
2022-10-10T06:40:19.644Z,100780.50
2022-10-10T06:42:47.259Z,100786.53
2022-10-10T06:45:14.688Z,100783.88
2022-10-10T06:47:42.108Z,100781.09
2022-10-10T06:50:09.786Z,100775.03
2022-10-10T06:52:37.135Z,100780.50
2022-10-10T06:55:04.960Z,100784.69
2022-10-10T06:57:32.714Z,100789.03
2022-10-10T07:00:00.112Z,100784.31
2022-10-10T07:02:28.622Z,100781.91
2022-10-10T07:04:56.277Z,100780.56
2022-10-10T07:07:23.607Z,100780.38
2022-10-10T07:09:50.920Z,100775.72
2022-10-10T07:12:18.564Z,100779.25
2022-10-10T07:14:45.940Z,100784.72
2022-10-10T07:17:13.286Z,100774.81
2022-10-10T07:19:40.907Z,100788.16
2022-10-10T07:22:08.266Z,100782.84
2022-10-10T07:24:36.982Z,100781.16
2022-10-10T07:27:08.638Z,100778.16
2022-10-10T07:29:36.299Z,100785.47
2022-10-10T07:32:03.655Z,100779.97
2022-10-10T07:34:31.739Z,100788.84
2022-10-10T07:36:59.084Z,100790.91
2022-10-10T07:39:26.440Z,100786.81
2022-10-10T07:41:54.072Z,100782.00
2022-10-10T07:44:23.584Z,100795.03
2022-10-10T07:46:50.919Z,100788.88
2022-10-10T07:49:18.581Z,100788.00
2022-10-10T07:51:46.024Z,100782.75
2022-10-10T07:54:13.421Z,100787.31
2022-10-10T07:56:41.032Z,100787.44
2022-10-10T07:59:08.419Z,100791.00
2022-10-10T08:01:35.840Z,100786.63
2022-10-10T08:04:03.572Z,100775.38
2022-10-10T08:06:30.910Z,100775.28
2022-10-10T08:08:58.307Z,100777.16
2022-10-10T08:11:25.932Z,100779.47
2022-10-10T08:13:53.316Z,100779.84
2022-10-10T08:16:20.852Z,100773.03
2022-10-10T08:18:48.506Z,100780.84
2022-10-10T08:21:16.423Z,100780.41
2022-10-10T08:23:44.065Z,100776.41
2022-10-10T08:26:13.512Z,100782.94
2022-10-10T08:28:41.267Z,100775.81
2022-10-10T08:31:14.515Z,100762.28
2022-10-10T08:33:43.316Z,100769.97
2022-10-10T08:36:13.502Z,100767.41
2022-10-10T08:38:40.956Z,100769.88
2022-10-10T08:41:11.359Z,100764.41
2022-10-10T08:43:45.711Z,100757.22
2022-10-10T08:46:18.941Z,100759.28
2022-10-10T08:48:46.719Z,100751.69
2022-10-10T08:51:21.842Z,100751.41
2022-10-10T08:53:52.231Z,100749.31
2022-10-10T08:56:26.766Z,100742.69
2022-10-10T08:58:59.070Z,100742.28
2022-10-10T09:01:36.667Z,100744.88
2022-10-10T09:04:24.454Z,100739.97
2022-10-10T09:07:37.851Z,100745.91
2022-10-10T09:10:28.285Z,100733.75
2022-10-10T09:13:02.056Z,100726.91
2022-10-10T09:15:41.562Z,100738.50
2022-10-10T09:18:38.512Z,100735.47
2022-10-10T09:21:34.028Z,100729.31
2022-10-10T09:24:24.195Z,100724.50
2022-10-10T09:26:56.709Z,100726.53
2022-10-10T09:29:33.253Z,100733.50
2022-10-10T09:32:12.172Z,100725.84
2022-10-10T09:34:43.106Z,100721.37
2022-10-10T09:37:45.671Z,100728.50
2022-10-10T09:40:14.314Z,100725.41
2022-10-10T09:42:43.802Z,100724.75
2022-10-10T09:45:24.826Z,100727.00
2022-10-10T09:47:55.238Z,100729.00
2022-10-10T09:50:23.909Z,100720.91
2022-10-10T09:52:52.074Z,100720.28
2022-10-10T09:55:22.369Z,100722.25
2022-10-10T09:57:52.046Z,100725.88
2022-10-10T10:00:19.623Z,100721.25
2022-10-10T10:03:04.542Z,100715.31
2022-10-10T10:05:31.849Z,100719.72
2022-10-10T10:07:59.412Z,100715.19
2022-10-10T10:10:27.695Z,100713.53
2022-10-10T10:12:55.651Z,100715.28
2022-10-10T10:15:25.462Z,100710.91
2022-10-10T10:18:19.450Z,100717.06
2022-10-10T10:20:52.634Z,100703.69
2022-10-10T10:23:56.464Z,100701.84
2022-10-10T10:26:29.227Z,100700.06
2022-10-10T10:28:58.039Z,100695.72
2022-10-10T10:31:47.853Z,100688.66
2022-10-10T10:34:36.939Z,100698.34
2022-10-10T10:37:12.731Z,100687.66
2022-10-10T10:40:17.963Z,100685.84
2022-10-10T10:43:06.959Z,100673.78
2022-10-10T10:46:16.204Z,100673.69
2022-10-10T10:49:03.381Z,100669.62
2022-10-10T10:51:39.734Z,100670.34
2022-10-10T10:54:40.482Z,100665.28
2022-10-10T10:57:36.880Z,100658.59
2022-10-10T11:00:47.254Z,100656.25
2022-10-10T11:05:18.328Z,100652.03
2022-10-10T11:06:54.237Z,100652.12
2022-10-10T11:09:55.016Z,100656.53
2022-10-10T11:12:51.060Z,100651.41
2022-10-10T11:15:23.981Z,100639.59
2022-10-10T11:18:01.626Z,100644.22
2022-10-10T11:20:36.277Z,100651.75
2022-10-10T11:23:43.033Z,100643.34
2022-10-10T11:26:19.423Z,100633.28
2022-10-10T11:28:59.377Z,100636.09
2022-10-10T11:31:31.998Z,100621.94
2022-10-10T11:34:05.148Z,100620.50
2022-10-10T11:36:35.484Z,100622.84
2022-10-10T11:39:39.634Z,100614.62
2022-10-10T11:42:15.236Z,100610.06
2022-10-10T11:44:46.645Z,100614.03
2022-10-10T11:47:35.865Z,100610.88
2022-10-10T11:50:12.604Z,100606.87
2022-10-10T11:52:53.182Z,100602.31
2022-10-10T11:55:29.048Z,100597.66
2022-10-10T11:58:26.238Z,100601.16
2022-10-10T12:01:02.069Z,100602.91
2022-10-10T12:03:29.784Z,100590.81
2022-10-10T12:06:07.862Z,100592.03
2022-10-10T12:08:44.107Z,100583.38
2022-10-10T12:11:33.758Z,100580.28
2022-10-10T12:14:15.637Z,100577.88
2022-10-10T12:16:43.313Z,100573.63
2022-10-10T12:19:20.027Z,100563.31
2022-10-10T12:21:59.612Z,100566.13
2022-10-10T12:24:31.181Z,100569.00
2022-10-10T12:26:58.386Z,100563.00
2022-10-10T12:30:08.034Z,100558.38
2022-10-10T12:32:43.689Z,100562.84
2022-10-10T12:35:41.773Z,100553.91
2022-10-10T12:38:23.897Z,100561.56
2022-10-10T12:40:57.450Z,100558.56
2022-10-10T12:43:52.203Z,100570.66
2022-10-10T12:46:32.453Z,100560.19
2022-10-10T12:49:14.220Z,100558.44
2022-10-10T12:51:42.226Z,100562.69
2022-10-10T12:54:22.666Z,100562.22
2022-10-10T12:56:52.552Z,100561.47
2022-10-10T12:59:24.055Z,100558.25
2022-10-10T13:01:57.603Z,100550.72
2022-10-10T13:04:26.061Z,100550.78
2022-10-10T13:06:56.204Z,100543.47
2022-10-10T13:09:35.349Z,100539.84
2022-10-10T13:12:06.083Z,100530.66
2022-10-10T13:14:42.877Z,100539.75
2022-10-10T13:17:21.743Z,100535.19
2022-10-10T13:19:49.868Z,100534.56
2022-10-10T13:22:18.390Z,100537.44
2022-10-10T13:24:46.087Z,100528.47
2022-10-10T13:27:22.070Z,100531.09
2022-10-10T13:29:50.149Z,100531.28
2022-10-10T13:32:21.419Z,100523.25
2022-10-10T13:34:53.328Z,100514.47
2022-10-10T13:37:21.075Z,100522.31
2022-10-10T13:39:50.749Z,100529.56
2022-10-10T13:42:36.901Z,100523.50
2022-10-10T13:45:46.065Z,100527.41
2022-10-10T13:48:27.758Z,100512.41
2022-10-10T13:51:08.758Z,100518.37
2022-10-10T13:53:43.554Z,100509.62
2022-10-10T13:56:31.619Z,100513.88
2022-10-10T13:59:08.051Z,100506.16
2022-10-10T14:01:45.052Z,100509.47
2022-10-10T14:04:12.738Z,100503.31
2022-10-10T14:07:12.089Z,100506.06
2022-10-10T14:09:50.000Z,100494.94
2022-10-10T14:12:30.543Z,100489.91
2022-10-10T14:14:59.511Z,100486.09
2022-10-10T14:17:27.525Z,100484.06
2022-10-10T14:19:55.643Z,100482.91
2022-10-10T14:22:23.704Z,100489.91
2022-10-10T14:24:51.351Z,100487.25
2022-10-10T14:27:22.363Z,100490.03
2022-10-10T14:29:51.062Z,100484.28
2022-10-10T14:32:19.140Z,100485.78
2022-10-10T14:34:47.424Z,100484.37
2022-10-10T14:37:41.334Z,100477.94
2022-10-10T14:40:29.442Z,100473.44
2022-10-10T14:42:57.201Z,100484.44
2022-10-10T14:45:25.236Z,100473.25
2022-10-10T14:47:52.585Z,100470.50
2022-10-10T14:50:23.213Z,100471.09
2022-10-10T14:52:50.738Z,100478.09
2022-10-10T14:55:18.360Z,100474.63
2022-10-10T14:57:46.016Z,100471.91
2022-10-10T15:00:19.046Z,100465.81
2022-10-10T15:02:47.003Z,100466.00
2022-10-10T15:05:15.443Z,100460.53
2022-10-10T15:07:42.976Z,100461.56
2022-10-10T15:10:33.405Z,100473.97
2022-10-10T15:13:00.133Z,100463.34
2022-10-10T15:15:28.050Z,100462.38
2022-10-10T15:17:58.702Z,100463.25
2022-10-10T15:20:31.364Z,100465.91
2022-10-10T15:23:01.101Z,100464.25
2022-10-10T15:25:33.291Z,100460.69
2022-10-10T15:28:04.765Z,100456.44
2022-10-10T15:30:32.488Z,100466.09
2022-10-10T15:33:00.114Z,100462.50
2022-10-10T15:35:44.648Z,100459.22
2022-10-10T15:38:16.453Z,100462.78
2022-10-10T15:40:44.172Z,100454.84
2022-10-10T15:43:11.497Z,100459.22
2022-10-10T15:46:01.624Z,100446.84
2022-10-10T15:48:31.056Z,100458.34
2022-10-10T15:50:58.648Z,100453.91
2022-10-10T15:53:28.562Z,100452.19
2022-10-10T15:55:56.342Z,100457.47
2022-10-10T15:58:23.692Z,100448.62
2022-10-10T16:00:51.259Z,100455.69
2022-10-10T16:03:20.032Z,100456.53
2022-10-10T16:05:47.366Z,100456.59
2022-10-10T16:08:15.045Z,100460.91
2022-10-10T16:10:43.584Z,100461.91
2022-10-10T16:13:11.474Z,100465.41
2022-10-10T16:15:38.903Z,100453.87
2022-10-10T16:18:06.783Z,100467.16
2022-10-10T16:20:34.141Z,100459.22
2022-10-10T16:23:01.522Z,100460.94
2022-10-10T16:25:29.133Z,100459.12
2022-10-10T16:27:56.732Z,100463.53
2022-10-10T16:30:24.385Z,100452.97
2022-10-10T16:32:52.078Z,100464.31
2022-10-10T16:35:19.689Z,100459.12
2022-10-10T16:37:47.097Z,100457.31
2022-10-10T16:40:14.734Z,100457.28
2022-10-10T16:42:42.117Z,100461.69
2022-10-10T16:45:10.581Z,100466.16
2022-10-10T16:47:38.745Z,100467.87
2022-10-10T16:50:06.582Z,100469.59
2022-10-10T16:52:38.261Z,100469.66
2022-10-10T16:55:07.566Z,100469.56
2022-10-10T16:57:36.280Z,100467.81
2022-10-10T17:00:05.763Z,100461.66
2022-10-10T17:02:33.672Z,100464.31
2022-10-10T17:05:01.369Z,100471.22
2022-10-10T17:07:28.791Z,100475.66
2022-10-10T17:09:56.495Z,100469.47
2022-10-10T17:12:23.873Z,100472.13
2022-10-10T17:14:51.313Z,100478.31
2022-10-10T17:17:19.490Z,100486.12
2022-10-10T17:19:49.237Z,100473.97
2022-10-10T17:22:17.058Z,100479.25
2022-10-10T17:24:44.720Z,100479.88
2022-10-10T17:27:12.247Z,100477.19
2022-10-10T17:29:40.119Z,100476.47
2022-10-10T17:32:07.904Z,100470.16
2022-10-10T17:34:35.359Z,100474.56
2022-10-10T17:37:03.663Z,100470.03
2022-10-10T17:39:31.953Z,100470.44
2022-10-10T17:42:00.305Z,100470.38
2022-10-10T17:44:28.093Z,100464.75
2022-10-10T17:46:55.789Z,100463.91
2022-10-10T17:49:23.427Z,100463.69
2022-10-10T17:51:50.936Z,100459.50
2022-10-10T17:54:19.154Z,100461.06
2022-10-10T17:56:46.747Z,100458.97
2022-10-10T17:59:14.227Z,100462.47
2022-10-10T18:01:42.241Z,100462.47
2022-10-10T18:04:11.161Z,100467.19
2022-10-10T18:06:38.525Z,100472.38
2022-10-10T18:09:06.266Z,100469.97
2022-10-10T18:11:33.878Z,100466.59
2022-10-10T18:14:01.355Z,100470.16
2022-10-10T18:16:32.959Z,100469.44
2022-10-10T18:19:04.190Z,100467.63
2022-10-10T18:21:31.893Z,100464.66
2022-10-10T18:24:01.047Z,100469.09
2022-10-10T18:26:30.006Z,100471.91
2022-10-10T18:28:58.190Z,100467.44
2022-10-10T18:31:28.665Z,100461.28
2022-10-10T18:33:56.847Z,100464.16
2022-10-10T18:36:27.424Z,100468.75
2022-10-10T18:38:58.605Z,100462.84
2022-10-10T18:41:30.559Z,100455.97
2022-10-10T18:43:57.973Z,100461.66
2022-10-10T18:46:25.934Z,100462.94
2022-10-10T18:48:54.346Z,100471.56
2022-10-10T18:51:24.798Z,100475.47
2022-10-10T18:53:56.452Z,100476.81
2022-10-10T18:56:26.731Z,100482.53
2022-10-10T18:58:57.561Z,100482.03
2022-10-10T19:01:26.682Z,100483.34
2022-10-10T19:03:55.308Z,100484.13
2022-10-10T19:06:24.182Z,100476.91
2022-10-10T19:08:54.368Z,100468.56
2022-10-10T19:11:28.686Z,100467.69
2022-10-10T19:13:58.272Z,100470.25
2022-10-10T19:16:26.120Z,100465.38
2022-10-10T19:18:58.094Z,100465.47
2022-10-10T19:21:28.090Z,100464.47
2022-10-10T19:23:55.586Z,100472.62
2022-10-10T19:26:23.041Z,100478.94
2022-10-10T19:28:50.973Z,100475.50
2022-10-10T19:31:20.364Z,100478.38
2022-10-10T19:33:51.695Z,100484.25
2022-10-10T19:36:19.993Z,100471.72
2022-10-10T19:38:47.559Z,100470.09
2022-10-10T19:41:15.088Z,100466.63
2022-10-10T19:43:44.045Z,100472.84
2022-10-10T19:46:13.841Z,100470.09
2022-10-10T19:48:41.368Z,100484.53
2022-10-10T19:51:12.795Z,100489.31
2022-10-10T19:53:41.892Z,100488.97
2022-10-10T19:56:14.372Z,100476.12
2022-10-10T19:58:43.291Z,100481.66
2022-10-10T20:01:13.902Z,100480.50
2022-10-10T20:03:42.839Z,100479.03
2022-10-10T20:06:10.443Z,100491.88
2022-10-10T20:08:38.576Z,100489.13
2022-10-10T20:11:06.603Z,100476.09
2022-10-10T20:13:34.725Z,100468.75
2022-10-10T20:16:04.285Z,100473.78
2022-10-10T20:18:34.457Z,100468.13
2022-10-10T20:21:16.358Z,100471.66
2022-10-10T20:23:46.093Z,100461.34
2022-10-10T20:26:16.858Z,100471.81
2022-10-10T20:28:45.046Z,100476.78
2022-10-10T20:31:21.455Z,100477.25
2022-10-10T20:33:50.562Z,100471.19
2022-10-10T20:36:18.831Z,100475.19
2022-10-10T20:38:52.809Z,100474.13
2022-10-10T20:41:21.491Z,100478.56
2022-10-10T20:43:49.001Z,100481.59
2022-10-10T20:46:16.467Z,100482.59
2022-10-10T20:48:44.205Z,100471.13
2022-10-10T20:51:13.240Z,100479.34
2022-10-10T20:53:43.996Z,100477.34
2022-10-10T20:56:12.889Z,100471.34
2022-10-10T20:58:40.906Z,100468.84
2022-10-10T21:01:13.743Z,100472.09
2022-10-10T21:03:42.884Z,100473.28
2022-10-10T21:06:13.298Z,100464.09
2022-10-10T21:08:41.691Z,100474.00
2022-10-10T21:11:11.302Z,100466.72
2022-10-10T21:13:40.922Z,100473.63
2022-10-10T21:16:13.959Z,100474.16
2022-10-10T21:18:44.522Z,100476.94
2022-10-10T21:21:17.589Z,100468.09
2022-10-10T21:23:46.496Z,100475.25
2022-10-10T21:26:20.201Z,100476.03
2022-10-10T21:28:52.705Z,100475.31
2022-10-10T21:31:23.533Z,100468.97
2022-10-10T21:33:51.828Z,100469.88
2022-10-10T21:36:20.413Z,100466.75
2022-10-10T21:38:48.026Z,100474.78
2022-10-10T21:41:21.744Z,100457.69
2022-10-10T21:43:54.876Z,100463.87
2022-10-10T21:46:27.784Z,100471.19
2022-10-10T21:48:56.975Z,100474.66
2022-10-10T21:51:25.508Z,100471.28
2022-10-10T21:53:55.331Z,100479.56
2022-10-10T21:56:22.797Z,100479.19
2022-10-10T21:58:50.436Z,100473.44
2022-10-10T22:01:20.010Z,100474.78
2022-10-10T22:03:49.640Z,100469.62
2022-10-10T22:06:19.519Z,100470.56
2022-10-10T22:08:47.580Z,100476.94
2022-10-10T22:11:21.852Z,100464.97
2022-10-10T22:13:49.531Z,100475.06
2022-10-10T22:16:17.416Z,100481.84
2022-10-10T22:18:44.873Z,100475.13
2022-10-10T22:21:15.278Z,100471.84
2022-10-10T22:23:44.270Z,100473.47
2022-10-10T22:26:13.611Z,100468.94
2022-10-10T22:28:41.053Z,100464.69
2022-10-10T22:31:11.333Z,100462.84
2022-10-10T22:33:39.091Z,100465.78
2022-10-10T22:36:07.356Z,100454.84
2022-10-10T22:38:40.919Z,100457.53
2022-10-10T22:41:08.957Z,100454.44
2022-10-10T22:43:36.617Z,100459.41
2022-10-10T22:46:04.256Z,100458.50
2022-10-10T22:48:32.016Z,100467.28
2022-10-10T22:51:06.073Z,100460.91
2022-10-10T22:53:34.119Z,100462.50
2022-10-10T22:56:02.253Z,100458.84
2022-10-10T22:58:31.855Z,100453.38
2022-10-10T23:01:11.710Z,100452.50
2022-10-10T23:03:39.519Z,100448.84
2022-10-10T23:06:07.547Z,100460.59
2022-10-10T23:08:35.628Z,100454.84
2022-10-10T23:11:03.845Z,100458.03
2022-10-10T23:13:31.807Z,100453.44
2022-10-10T23:15:59.262Z,100458.31
2022-10-10T23:18:28.251Z,100454.88
2022-10-10T23:20:55.996Z,100459.44
2022-10-10T23:23:23.815Z,100457.66
2022-10-10T23:25:51.791Z,100443.72
2022-10-10T23:28:19.559Z,100448.97
2022-10-10T23:30:48.318Z,100451.81
2022-10-10T23:33:17.042Z,100450.44
2022-10-10T23:35:44.516Z,100446.81
2022-10-10T23:38:31.941Z,100453.28
2022-10-10T23:41:19.556Z,100453.44
2022-10-10T23:44:07.684Z,100442.31
2022-10-10T23:46:51.834Z,100445.31
2022-10-10T23:49:36.164Z,100446.50
2022-10-10T23:52:19.711Z,100445.59
2022-10-10T23:55:02.986Z,100443.72
2022-10-10T23:57:46.831Z,100452.47
